createdAt,value
2023-03-17T00:01:38.099Z,2.75
2023-03-17T00:04:06.073Z,2.03
2023-03-17T00:06:34.123Z,3.73
2023-03-17T00:09:02.208Z,0.80
2023-03-17T00:11:30.011Z,4.50
2023-03-17T00:13:57.833Z,2.93
2023-03-17T00:16:27.262Z,3.08
2023-03-17T00:18:55.040Z,3.47
2023-03-17T00:21:27.024Z,1.77
2023-03-17T00:23:55.061Z,3.88
2023-03-17T00:26:23.371Z,4.35
2023-03-17T00:28:51.375Z,5.35
2023-03-17T00:31:23.421Z,1.97
2023-03-17T00:33:52.407Z,1.40
2023-03-17T00:36:21.491Z,2.42
2023-03-17T00:38:49.855Z,4.20
2023-03-17T00:41:18.453Z,3.28
2023-03-17T00:43:46.373Z,4.13
2023-03-17T00:46:18.847Z,2.77
2023-03-17T00:48:47.053Z,2.58
2023-03-17T00:51:16.587Z,2.67
2023-03-17T00:53:44.507Z,2.83
2023-03-17T00:56:15.880Z,4.23
2023-03-17T00:58:43.785Z,2.67
2023-03-17T01:01:11.612Z,2.25
2023-03-17T01:03:39.316Z,1.77
2023-03-17T01:06:07.643Z,3.05
2023-03-17T01:08:36.838Z,3.88
2023-03-17T01:11:04.706Z,1.40
2023-03-17T01:13:32.461Z,1.65
2023-03-17T01:16:01.021Z,1.95
2023-03-17T01:18:28.820Z,4.38
2023-03-17T01:20:56.676Z,2.07
2023-03-17T01:23:24.316Z,2.10
2023-03-17T01:25:52.100Z,1.90
2023-03-17T01:28:20.053Z,4.37
2023-03-17T01:30:47.971Z,1.17
2023-03-17T01:33:15.810Z,2.88
2023-03-17T01:35:46.484Z,2.37
2023-03-17T01:38:14.271Z,3.28
2023-03-17T01:40:45.871Z,1.70
2023-03-17T01:43:13.666Z,3.10
2023-03-17T01:45:59.919Z,4.30
2023-03-17T01:48:28.680Z,2.40
2023-03-17T01:50:56.392Z,2.78
2023-03-17T01:53:24.120Z,4.00
2023-03-17T01:55:51.789Z,3.38
2023-03-17T01:58:20.328Z,1.90
2023-03-17T02:00:48.985Z,4.10
2023-03-17T02:03:16.667Z,1.73
2023-03-17T02:05:44.419Z,2.65
2023-03-17T02:08:16.564Z,1.85
2023-03-17T02:10:44.905Z,2.23
2023-03-17T02:13:13.299Z,2.95
2023-03-17T02:15:45.069Z,2.10
2023-03-17T02:18:13.019Z,4.13
2023-03-17T02:20:40.680Z,2.80
2023-03-17T02:23:08.365Z,2.67
2023-03-17T02:25:36.844Z,2.33
2023-03-17T02:28:09.024Z,3.70
2023-03-17T02:30:37.109Z,2.28
2023-03-17T02:33:04.780Z,3.88
2023-03-17T02:35:33.073Z,1.97
2023-03-17T02:38:01.259Z,3.03
2023-03-17T02:40:29.189Z,6.75
2023-03-17T02:42:57.678Z,2.43
2023-03-17T02:45:27.848Z,3.22
2023-03-17T02:47:56.265Z,2.63
2023-03-17T02:50:24.708Z,2.70
2023-03-17T02:52:52.574Z,2.10
2023-03-17T02:55:20.560Z,1.85
2023-03-17T02:57:48.311Z,2.55
2023-03-17T03:00:19.739Z,3.10
2023-03-17T03:02:47.480Z,3.08
2023-03-17T03:05:15.328Z,4.65
2023-03-17T03:07:43.549Z,4.60
2023-03-17T03:10:11.648Z,1.92
2023-03-17T03:12:40.371Z,7.05
2023-03-17T03:15:09.896Z,2.23
2023-03-17T03:17:38.262Z,2.47
2023-03-17T03:20:06.209Z,4.97
2023-03-17T03:22:33.869Z,2.20
2023-03-17T03:25:01.671Z,3.43
2023-03-17T03:27:29.291Z,1.13
2023-03-17T03:29:57.235Z,1.77
2023-03-17T03:32:25.216Z,1.70
2023-03-17T03:34:53.029Z,2.17
2023-03-17T03:37:20.779Z,2.17
2023-03-17T03:39:48.576Z,2.30
2023-03-17T03:42:16.687Z,2.22
2023-03-17T03:44:44.349Z,2.88
2023-03-17T03:47:12.178Z,2.53
2023-03-17T03:49:39.865Z,3.97
2023-03-17T03:52:07.968Z,5.15
2023-03-17T03:54:35.986Z,1.50
2023-03-17T03:57:03.664Z,1.70
2023-03-17T03:59:31.840Z,3.00
2023-03-17T04:02:00.727Z,5.13
2023-03-17T04:04:28.423Z,3.90
2023-03-17T04:06:56.133Z,1.90
2023-03-17T04:09:23.806Z,1.92
2023-03-17T04:11:52.182Z,2.65
2023-03-17T04:14:20.083Z,2.73
2023-03-17T04:16:47.842Z,2.97
2023-03-17T04:19:15.978Z,3.45
2023-03-17T04:21:43.801Z,2.83
2023-03-17T04:24:11.614Z,5.93
2023-03-17T04:26:39.259Z,1.42
2023-03-17T04:29:08.955Z,5.27
2023-03-17T04:31:37.826Z,3.50
2023-03-17T04:34:05.586Z,4.47
2023-03-17T04:36:33.613Z,2.33
2023-03-17T04:39:02.143Z,1.90
2023-03-17T04:41:29.895Z,3.95
2023-03-17T04:43:57.616Z,4.68
2023-03-17T04:46:25.838Z,1.60
2023-03-17T04:48:53.541Z,4.88
2023-03-17T04:51:21.240Z,3.95
2023-03-17T04:53:49.150Z,2.90
2023-03-17T04:56:16.881Z,1.55
2023-03-17T04:58:44.612Z,2.80
2023-03-17T05:01:12.305Z,4.53
2023-03-17T05:03:40.475Z,2.23
2023-03-17T05:06:08.725Z,2.03
2023-03-17T05:08:36.490Z,3.35
2023-03-17T05:11:04.180Z,2.47
2023-03-17T05:13:31.968Z,3.90
2023-03-17T05:16:01.065Z,3.97
2023-03-17T05:18:28.871Z,6.20
2023-03-17T05:20:56.659Z,5.45
2023-03-17T05:23:24.369Z,2.63
2023-03-17T05:25:52.817Z,2.67
2023-03-17T05:28:21.049Z,2.97
2023-03-17T05:30:49.367Z,1.65
2023-03-17T05:33:17.203Z,3.72
2023-03-17T05:35:45.450Z,2.37
2023-03-17T05:38:13.448Z,1.90
2023-03-17T05:40:41.374Z,5.57
2023-03-17T05:43:09.166Z,4.23
2023-03-17T05:45:37.135Z,2.67
2023-03-17T05:48:05.086Z,2.70
2023-03-17T05:50:33.094Z,2.67
2023-03-17T05:53:01.335Z,2.10
2023-03-17T05:55:29.134Z,0.80
2023-03-17T05:57:57.310Z,2.30
2023-03-17T06:00:25.360Z,2.37
2023-03-17T06:02:53.087Z,2.88
2023-03-17T06:05:21.516Z,2.10
2023-03-17T06:07:54.867Z,2.03
2023-03-17T06:10:24.526Z,2.30
2023-03-17T06:12:53.036Z,1.65
2023-03-17T06:15:20.950Z,3.35
2023-03-17T06:17:48.739Z,3.23
2023-03-17T06:20:16.600Z,2.65
2023-03-17T06:23:02.220Z,1.88
2023-03-17T06:25:31.889Z,2.70
2023-03-17T06:28:02.788Z,6.68
2023-03-17T06:30:31.473Z,4.15
2023-03-17T06:32:59.363Z,2.30
2023-03-17T06:35:27.728Z,3.08
2023-03-17T06:37:55.495Z,2.60
2023-03-17T06:40:23.231Z,1.33
2023-03-17T06:42:51.207Z,2.43
2023-03-17T06:45:19.161Z,2.67
2023-03-17T06:47:46.948Z,2.05
2023-03-17T06:50:14.691Z,2.10
2023-03-17T06:52:42.831Z,2.35
2023-03-17T06:55:11.046Z,7.47
2023-03-17T06:57:38.813Z,3.50
2023-03-17T07:00:07.172Z,1.52
2023-03-17T07:02:35.179Z,3.55
2023-03-17T07:05:03.949Z,3.50
2023-03-17T07:07:31.854Z,2.27
2023-03-17T07:10:00.081Z,3.17
2023-03-17T07:12:28.894Z,3.00
2023-03-17T07:14:56.770Z,1.20
2023-03-17T07:17:25.632Z,6.10
2023-03-17T07:19:53.592Z,2.42
2023-03-17T07:22:21.310Z,4.97
2023-03-17T07:24:49.417Z,4.00
2023-03-17T07:27:17.500Z,5.30
2023-03-17T07:29:46.877Z,5.13
2023-03-17T07:32:15.466Z,2.50
2023-03-17T07:34:43.547Z,12.90
2023-03-17T07:37:12.318Z,15.43
2023-03-17T07:39:40.198Z,1.30
2023-03-17T07:42:08.399Z,2.75
2023-03-17T07:44:38.391Z,8.80
2023-03-17T07:47:06.361Z,1.50
2023-03-17T07:49:41.259Z,3.05
2023-03-17T07:52:10.547Z,5.47
2023-03-17T07:54:42.259Z,2.78
2023-03-17T07:57:10.599Z,7.47
2023-03-17T07:59:38.494Z,9.30
2023-03-17T08:02:06.989Z,3.97
2023-03-17T08:04:35.322Z,1.37
2023-03-17T08:07:03.558Z,2.78
2023-03-17T08:14:36.974Z,2.60
2023-03-17T08:29:02.166Z,2.30
2023-03-17T09:32:55.404Z,2.72
2023-03-17T09:35:48.678Z,3.85
2023-03-17T09:38:25.834Z,2.38
2023-03-17T10:27:17.391Z,3.70
2023-03-17T10:37:18.334Z,4.63
2023-03-17T10:43:30.975Z,4.90
2023-03-17T10:46:08.308Z,8.77
2023-03-17T10:48:37.071Z,6.47
2023-03-17T10:51:11.248Z,2.53
2023-03-17T10:53:44.525Z,4.38
2023-03-17T10:56:21.953Z,4.55
2023-03-17T10:59:09.964Z,7.70
2023-03-17T11:01:41.530Z,3.33
2023-03-17T11:04:30.251Z,6.05
2023-03-17T11:06:58.815Z,5.30
2023-03-17T11:09:28.208Z,8.20
2023-03-17T11:12:03.897Z,5.03
2023-03-17T11:14:32.092Z,4.82
2023-03-17T11:17:14.503Z,3.73
2023-03-17T11:19:45.645Z,4.30
2023-03-17T11:22:26.518Z,6.07
2023-03-17T11:25:04.687Z,5.37
2023-03-17T11:27:33.931Z,8.23
2023-03-17T11:30:20.225Z,9.38
2023-03-17T11:32:50.996Z,6.57
2023-03-17T11:35:31.057Z,7.55
2023-03-17T11:38:01.144Z,5.20
2023-03-17T11:40:35.899Z,9.00
2023-03-17T11:43:04.307Z,5.87
2023-03-17T11:45:50.805Z,3.88
2023-03-17T11:48:25.136Z,4.93
2023-03-17T11:50:56.866Z,6.37
2023-03-17T11:53:26.432Z,6.70
2023-03-17T11:55:56.141Z,5.57
2023-03-17T11:58:41.465Z,7.00
2023-03-17T12:01:10.181Z,6.68
2023-03-17T12:03:40.471Z,6.13
2023-03-17T12:06:18.396Z,5.90
2023-03-17T12:08:47.758Z,6.20
2023-03-17T12:11:17.364Z,6.68
2023-03-17T12:13:46.728Z,6.88
2023-03-17T12:16:18.100Z,6.83
2023-03-17T12:19:04.696Z,6.32
2023-03-17T12:21:39.100Z,7.75
2023-03-17T12:24:12.864Z,7.72
2023-03-17T12:26:40.734Z,9.65
2023-03-17T12:29:13.054Z,5.68
2023-03-17T12:31:42.847Z,6.80
2023-03-17T12:34:21.083Z,8.47
2023-03-17T12:36:49.298Z,10.90
2023-03-17T12:39:17.472Z,7.90
2023-03-17T12:41:56.806Z,7.27
2023-03-17T12:44:31.893Z,4.88
2023-03-17T12:47:23.450Z,6.25
2023-03-17T12:50:02.704Z,7.95
2023-03-17T12:52:42.542Z,6.40
2023-03-17T12:55:12.716Z,11.25
2023-03-17T12:57:43.958Z,5.93
2023-03-17T13:00:30.897Z,10.97
2023-03-17T13:03:16.866Z,7.07
2023-03-17T13:05:48.287Z,6.53
2023-03-17T13:08:17.863Z,6.70
2023-03-17T13:10:48.801Z,9.20
2023-03-17T13:13:23.741Z,9.15
2023-03-17T13:15:53.100Z,7.50
2023-03-17T13:18:20.933Z,6.97
2023-03-17T13:20:57.761Z,7.45
2023-03-17T13:23:44.780Z,8.50
2023-03-17T13:26:15.104Z,9.93
2023-03-17T13:28:44.146Z,7.10
2023-03-17T13:31:12.525Z,9.85
2023-03-17T13:33:46.837Z,7.60
2023-03-17T13:36:14.664Z,8.00
2023-03-17T13:38:48.542Z,6.70
2023-03-17T13:41:39.311Z,9.57
2023-03-17T13:44:07.043Z,7.50
2023-03-17T13:46:40.697Z,8.52
2023-03-17T13:49:24.314Z,7.18
2023-03-17T13:52:00.536Z,7.53
2023-03-17T13:54:28.449Z,7.93
2023-03-17T13:56:56.713Z,10.50
2023-03-17T13:59:37.575Z,8.80
2023-03-17T14:02:18.821Z,11.77
2023-03-17T14:04:54.669Z,7.95
2023-03-17T14:07:26.778Z,6.72
2023-03-17T14:26:38.063Z,7.90
2023-03-17T14:33:22.629Z,7.23
2023-03-17T14:35:51.150Z,7.35
2023-03-17T14:38:19.968Z,10.77
2023-03-17T14:40:47.822Z,7.65
2023-03-17T14:43:16.421Z,11.75
2023-03-17T14:45:53.448Z,16.27
2023-03-17T14:48:24.562Z,6.90
2023-03-17T14:51:05.821Z,7.77
2023-03-17T14:53:34.369Z,7.30
2023-03-17T14:56:02.128Z,9.57
2023-03-17T14:58:35.740Z,7.90
2023-03-17T15:01:08.033Z,9.35
2023-03-17T15:03:38.717Z,8.55
2023-03-17T15:06:24.986Z,7.43
2023-03-17T15:08:52.876Z,9.10
2023-03-17T15:11:24.560Z,8.35
2023-03-17T15:13:57.121Z,7.43
2023-03-17T15:16:25.967Z,8.00
2023-03-17T15:19:22.762Z,11.35
2023-03-17T15:21:50.766Z,8.63
2023-03-17T15:24:26.332Z,14.47
2023-03-17T15:27:01.405Z,10.15
2023-03-17T15:29:29.333Z,10.68
2023-03-17T15:32:19.427Z,9.40
2023-03-17T15:34:54.705Z,9.15
2023-03-17T15:37:23.549Z,15.65
2023-03-17T15:39:51.658Z,9.45
2023-03-17T15:42:19.925Z,9.20
2023-03-17T15:44:47.707Z,8.23
2023-03-17T15:47:16.010Z,10.23
2023-03-17T17:08:03.457Z,10.77
2023-03-17T17:54:14.713Z,9.48
2023-03-17T18:08:13.989Z,13.25
2023-03-17T21:38:00.448Z,18.03
2023-03-17T21:44:22.495Z,16.80
2023-03-17T21:51:34.536Z,20.23
2023-03-17T21:54:27.170Z,18.85
2023-03-17T21:57:29.791Z,15.43
2023-03-17T22:19:23.251Z,16.38
2023-03-17T22:25:51.915Z,16.35
2023-03-17T22:28:19.726Z,15.45
2023-03-17T22:42:18.118Z,16.65
2023-03-17T22:45:36.259Z,20.97
2023-03-17T23:34:54.760Z,16.47
2023-03-17T23:45:51.198Z,13.07
2023-03-17T23:48:44.690Z,16.50
2023-03-17T23:51:13.032Z,19.77
2023-03-17T23:57:28.352Z,17.97
